Prattsville, Arkansas
Current Conditions -  °F | °C
As of 7:56 AM on Thursday 27 Nov 2014 (Local Time) from KADF Reporting Station
Clear Clear  
Wind Chill: 37°   Ceiling: Unl
Heat Index: 37°   Visibility: 10mi
Dew Point: 29°   Wind: 3mph
Humidity: 74%   Direction: 320°NW
Pressure: 30.53"   Gusts: NA
Location:  34.31°N, 92.55°W
Report Text: KADF 271356Z AUTO 32003KT 10SM CLR 03/M02 A3053 RMK AO2 T00271016 SLP353
Loading
Personal Weather Stations






























Interactive Weather Map New forecast layout! Learn more

10-Day Weather Forecast

Advertisements
Track Severe Weather on mobile